TimeMST,TemperatureF,Dew PointF,Humidity,Sea Level PressureIn,VisibilityMPH,Wind Direction,Wind SpeedMPH,Gust SpeedMPH,PrecipitationIn,Events,Conditions,WindDirDegrees,DateUTC
12:53 AM,45.0,21.9,40,29.74,10.0,SSE,16.1,-,N/A,,Mostly Cloudy,160,2012-12-13 07:53:00
1:53 AM,44.1,21.9,42,29.75,10.0,SSE,16.1,-,N/A,,Mostly Cloudy,150,2012-12-13 08:53:00
2:53 AM,43.0,21.9,43,29.76,10.0,ESE,13.8,-,N/A,,Overcast,120,2012-12-13 09:53:00
3:53 AM,44.1,21.9,42,29.77,10.0,SE,12.7,-,N/A,,Mostly Cloudy,130,2012-12-13 10:53:00
4:53 AM,45.0,21.0,39,29.77,10.0,SSE,12.7,-,N/A,,Overcast,160,2012-12-13 11:53:00
5:53 AM,45.0,21.9,40,29.78,10.0,SSE,11.5,-,N/A,,Mostly Cloudy,150,2012-12-13 12:53:00
6:53 AM,46.9,21.0,36,29.79,10.0,South,17.3,23.0,N/A,,Overcast,180,2012-12-13 13:53:00
7:53 AM,46.0,24.1,42,29.81,10.0,SSE,10.4,-,N/A,,Overcast,150,2012-12-13 14:53:00
8:53 AM,48.0,24.1,39,29.81,10.0,South,9.2,-,N/A,,Mostly Cloudy,170,2012-12-13 15:53:00
9:53 AM,48.0,25.0,41,29.81,10.0,SSE,13.8,-,N/A,,Mostly Cloudy,150,2012-12-13 16:53:00
10:53 AM,48.0,25.0,41,29.81,10.0,SE,10.4,-,N/A,,Mostly Cloudy,140,2012-12-13 17:53:00
11:53 AM,50.0,23.0,35,29.79,10.0,ESE,10.4,-,N/A,,Overcast,120,2012-12-13 18:53:00
12:53 PM,51.1,24.1,35,29.77,10.0,SSE,9.2,-,N/A,,Overcast,160,2012-12-13 19:53:00
1:53 PM,53.1,21.0,29,29.75,10.0,South,12.7,-,N/A,,Mostly Cloudy,190,2012-12-13 20:53:00
2:53 PM,53.1,21.0,29,29.74,10.0,SSW,10.4,-,N/A,,Mostly Cloudy,200,2012-12-13 21:53:00
4:53 PM,50.0,21.2,32,29.79,10.0,South,4.6,-,N/A,,Mostly Cloudy,170,2012-12-13 23:53:00
5:53 PM,48.2,23.0,37,29.79,10.0,SE,5.8,-,N/A,,Mostly Cloudy,130,2012-12-14 00:53:00
6:53 PM,46.9,21.9,37,29.75,10.0,South,8.1,-,N/A,,Mostly Cloudy,170,2012-12-14 01:53:00
7:53 PM,45.0,21.9,40,29.76,10.0,SSE,8.1,-,N/A,,Mostly Cloudy,160,2012-12-14 02:53:00
8:53 PM,44.1,21.0,40,29.75,10.0,South,8.1,-,N/A,,Scattered Clouds,170,2012-12-14 03:53:00
9:53 PM,43.0,21.9,43,29.76,10.0,SE,9.2,-,N/A,,Scattered Clouds,140,2012-12-14 04:53:00
10:53 PM,41.0,21.2,45,29.79,10.0,SSE,6.9,-,N/A,,Mostly Cloudy,160,2012-12-14 05:53:00
11:53 PM,42.1,21.9,45,29.72,10.0,SSE,9.2,-,N/A,,Mostly Cloudy,160,2012-12-14 06:53:00